Startpagina
METAR-TAF:

METAR-TAF

Vliegvelden :

Internationale luchthaven van Bahrein

Bahrein, Bahrein

breedte: 26-16N, lengte: 050-39E, hoogte: 2 m

Actueel weer

Dit bericht is 38 minuten geleden gemaakt, om 00:30 UTC
Wind 5 kt uit het westen
Temperatuur 35°C
Vochtigheid 37%
Druk 999 hPa
Zicht 10 km of meer
geen wolken onder 1500 m en geen cumulonimbus

METAR: OBBI 170030Z 28005KT CAVOK 35/18 Q0999 NOSIG

Tijdstip: 04:08 (01:08 UTC)

Verwachting

Dit bericht is 2 uur en het 8 minuten geleden gemaakt, om 23:00 UTC
Verwachting geldig van 17 om 00 UTC tot 18 om 06 UTC
Wind 8 kt uit het noordnoordwesten
Zicht 10 km of meer
geen wolken onder 1500 m en geen cumulonimbus
Wijzigt naar
van 17 om 06 UTC tot 17 om 08 UTC
Wind 15 kt uit het noordnoordwesten met uitschieters tot 25 kt

TAF: OBBI 162300Z 1700/1806 34008KT CAVOK BECMG 1706/1708 33015G25KT

Waarnemingen en weersverwachtingen van meer dan 4000 vliegvelden (METAR en TAF).

De beschikbare stations zijn de gele en rode punten op de kaart.

Ga met uw muis naar het station om de naam te zien.

Klik dan om waarnemingen en weersverwachtingen te zien.

kaart wijzigen: klik op de groene knoppen met een zwart kruis om in te zoomen, op de groene knop met een streepje om uit te zoomen of op de groene pijlen voor aangrenzende kaarten.


METAR-TAF: